Time;durP1;ratioP1;P1;durP2;ratioP2;P2;SDS_P1;SDS_P2;PMS_P1;PMS_P2;Temp;Humidity;BMP_temperature;BMP_pressure;BME280_temperature;BME280_humidity;BME280_pressure;Samples;Min_cycle;Max_cycle;Signal;HPM_P1;HPM_P2
2021/03/28 00:01:40;;;;;;;3.80;2.33;;;8.00;37.50;;;;;;4955609;29;20229;-85
2021/03/28 00:04:10;;;;;;;8.63;2.55;;;8.00;37.40;;;;;;4958122;28;20222;-85
2021/03/28 00:06:52;;;;;;;7.97;2.20;;;8.10;37.20;;;;;;4953058;28;20218;-85
2021/03/28 00:09:23;;;;;;;5.80;2.60;;;8.10;37.20;;;;;;4950200;29;20191;-84
2021/03/28 00:12:00;;;;;;;8.55;2.58;;;8.10;37.40;;;;;;4948532;29;20250;-84
2021/03/28 00:14:44;;;;;;;7.18;2.50;;;8.20;37.30;;;;;;4949967;29;20187;-83
2021/03/28 00:17:28;;;;;;;5.25;2.80;;;8.20;37.00;;;;;;4956159;29;20241;-85
2021/03/28 00:19:59;;;;;;;8.45;2.70;;;8.30;37.00;;;;;;4949825;29;20195;-84
2021/03/28 00:22:32;;;;;;;5.97;2.80;;;8.30;36.90;;;;;;4945718;29;20257;-85
2021/03/28 00:25:06;;;;;;;4.82;2.20;;;8.40;36.70;;;;;;4946862;29;20194;-85
2021/03/28 00:27:42;;;;;;;9.00;3.05;;;8.40;36.70;;;;;;4969194;23;20341;-88
2021/03/28 00:30:23;;;;;;;6.80;2.80;;;8.50;36.80;;;;;;4950765;29;20202;-89
2021/03/28 00:32:55;;;;;;;6.38;2.45;;;8.50;36.10;;;;;;4954492;29;20194;-89
2021/03/28 00:35:26;;;;;;;8.23;2.40;;;8.60;36.00;;;;;;4958787;29;20194;-90
2021/03/28 00:38:14;;;;;;;4.97;2.50;;;8.50;36.00;;;;;;4960135;29;20258;-89
2021/03/28 00:40:42;;;;;;;4.82;2.47;;;8.60;35.90;;;;;;4962212;28;20206;-91
2021/03/28 00:43:20;;;;;;;5.28;2.33;;;8.60;35.90;;;;;;4962972;28;20217;-92
2021/03/28 00:45:54;;;;;;;6.10;2.42;;;8.60;35.90;;;;;;4962954;28;20278;-92
2021/03/28 00:48:23;;;;;;;3.78;2.67;;;8.60;35.90;;;;;;4962778;28;20225;-91
2021/03/28 00:50:55;;;;;;;3.67;2.60;;;8.60;35.80;;;;;;4962467;28;20199;-91
2021/03/28 00:53:41;;;;;;;5.18;3.00;;;8.60;35.90;;;;;;4962512;28;20218;-89
2021/03/28 00:56:12;;;;;;;6.35;2.80;;;8.60;35.70;;;;;;4962748;28;20225;-90
2021/03/28 00:59:00;;;;;;;3.97;2.40;;;8.60;35.90;;;;;;4962797;28;20225;-90
2021/03/28 01:01:34;;;;;;;3.47;2.05;;;8.60;35.90;;;;;;4961964;28;20199;-91
2021/03/28 01:04:39;;;;;;;7.68;2.80;;;8.60;35.60;;;;;;4960037;28;20289;-90
2021/03/28 01:07:22;;;;;;;7.07;2.35;;;8.60;35.70;;;;;;4924506;29;20252;-89
2021/03/28 01:10:30;;;;;;;7.43;2.90;;;8.60;35.80;;;;;;4955792;29;20210;-89
2021/03/28 01:13:42;;;;;;;6.18;2.60;;;8.60;35.60;;;;;;4918559;29;20207;-91
2021/03/28 01:16:43;;;;;;;9.02;2.40;;;8.60;35.70;;;;;;4918381;28;20230;-90
2021/03/28 01:19:31;;;;;;;3.60;1.58;;;8.60;35.40;;;;;;4960830;28;20276;-89
2021/03/28 01:22:05;;;;;;;10.48;2.47;;;8.60;35.40;;;;;;4960586;28;20226;-88
2021/03/28 01:24:40;;;;;;;4.28;1.98;;;8.60;35.30;;;;;;4950376;29;20237;-89
2021/03/28 01:27:19;;;;;;;4.50;2.10;;;8.60;35.20;;;;;;4958842;28;20245;-89
2021/03/28 01:30:06;;;;;;;5.72;2.42;;;8.70;35.10;;;;;;4960417;28;20229;-89
2021/03/28 01:33:11;;;;;;;5.35;1.75;;;8.60;35.10;;;;;;4961287;28;20194;-89
2021/03/28 01:36:13;;;;;;;5.88;2.85;;;8.60;35.30;;;;;;4944699;28;20195;-93
2021/03/28 01:38:55;;;;;;;10.82;2.38;;;8.50;35.40;;;;;;4962287;28;20224;-91
2021/03/28 01:41:30;;;;;;;4.15;2.13;;;8.40;35.60;;;;;;4961717;28;20214;-90
2021/03/28 01:44:17;;;;;;;4.88;2.38;;;8.40;35.80;;;;;;4960380;28;20292;-88
2021/03/28 01:47:14;;;;;;;3.42;2.28;;;8.40;36.00;;;;;;4961277;28;20237;-88
2021/03/28 01:50:24;;;;;;;7.20;2.58;;;8.30;36.50;;;;;;4902716;29;20211;-93
2021/03/28 01:53:23;;;;;;;;;;;;;;;;;;;;;
2021/03/28 01:56:02;;;;;;;6.88;3.10;;;8.20;37.30;;;;;;4903732;29;20215;-85
2021/03/28 01:58:37;;;;;;;11.63;3.45;;;8.10;37.80;;;;;;4903698;29;20219;-89
2021/03/28 08:08:57;;;;;;;7.85;2.38;;;9.20;39.80;;;;;;5084324;23;20297;-80
2021/03/28 08:11:45;;;;;;;3.40;1.75;;;9.30;39.80;;;;;;4942310;29;20210;-81
2021/03/28 08:14:35;;;;;;;5.32;2.30;;;9.40;38.90;;;;;;4937766;29;20206;-80
2021/03/28 08:17:32;;;;;;;4.20;2.13;;;9.60;38.20;;;;;;4940857;29;20233;-81
2021/03/28 08:20:27;;;;;;;3.47;1.70;;;9.70;37.70;;;;;;4939824;29;20240;-81
2021/03/28 08:23:15;;;;;;;6.53;2.15;;;9.70;37.80;;;;;;4940797;29;20340;-81
2021/03/28 08:26:10;;;;;;;2.85;1.67;;;9.80;36.70;;;;;;4930163;29;20206;-82
2021/03/28 08:29:10;;;;;;;7.03;2.10;;;9.80;37.30;;;;;;4940341;29;20253;-81
2021/03/28 08:31:48;;;;;;;4.03;2.20;;;9.90;36.00;;;;;;4916892;29;20219;-82
2021/03/28 08:35:05;;;;;;;6.53;2.67;;;10.00;34.50;;;;;;4938976;29;20584;-79
2021/03/28 08:38:22;;;;;;;6.00;2.80;;;10.30;34.20;;;;;;4945722;29;20249;-81
2021/03/28 08:41:18;;;;;;;5.32;2.20;;;10.40;33.20;;;;;;4929428;29;20246;-81
2021/03/28 08:44:15;;;;;;;3.03;1.83;;;10.50;33.00;;;;;;4957514;28;20217;-79
2021/03/28 08:47:21;;;;;;;3.42;2.00;;;10.70;32.10;;;;;;4960405;28;20199;-81
2021/03/28 08:49:55;;;;;;;5.68;1.83;;;10.90;32.50;;;;;;4933391;29;20225;-81
2021/03/28 08:52:51;;;;;;;4.47;2.10;;;11.10;31.70;;;;;;4952217;29;20284;-82
2021/03/28 08:55:32;;;;;;;4.32;1.83;;;11.20;31.30;;;;;;4943867;29;20211;-80
2021/03/28 08:58:04;;;;;;;3.55;1.58;;;11.40;30.70;;;;;;4942603;29;20707;-79
2021/03/28 09:00:38;;;;;;;6.07;2.10;;;11.60;30.90;;;;;;4954086;29;20210;-80
2021/03/28 09:03:52;;;;;;;3.20;1.67;;;11.80;31.10;;;;;;4953540;29;20211;-82
2021/03/28 09:06:20;;;;;;;4.88;1.50;;;12.00;30.40;;;;;;4957050;28;20210;-79
2021/03/28 09:08:58;;;;;;;3.42;1.70;;;12.00;30.00;;;;;;4958863;28;20266;-84
2021/03/28 09:11:48;;;;;;;4.10;1.67;;;12.10;29.40;;;;;;4951677;29;20234;-80
2021/03/28 09:14:39;;;;;;;2.95;1.60;;;12.10;29.20;;;;;;4949743;29;20217;-81
2021/03/28 09:17:18;;;;;;;5.60;2.38;;;12.30;29.00;;;;;;4946919;29;20310;-82
2021/03/28 09:20:25;;;;;;;2.65;1.70;;;12.60;28.50;;;;;;4960322;28;20214;-85
2021/03/28 09:23:07;;;;;;;3.97;1.77;;;12.60;28.20;;;;;;4957691;29;20197;-86
2021/03/28 09:25:39;;;;;;;2.28;1.73;;;12.70;28.00;;;;;;4961174;28;20195;-85
2021/03/28 09:28:17;;;;;;;5.68;2.30;;;12.80;27.20;;;;;;4949323;29;20262;-79
2021/03/28 09:30:55;;;;;;;3.58;1.55;;;12.90;27.30;;;;;;4950756;29;20268;-82
2021/03/28 09:33:55;;;;;;;3.50;1.60;;;13.10;26.80;;;;;;4944230;29;20660;-81
2021/03/28 09:36:39;;;;;;;3.40;1.42;;;13.20;26.10;;;;;;4941707;29;20214;-82
2021/03/28 09:39:28;;;;;;;3.40;1.70;;;13.20;25.60;;;;;;4946345;29;20191;-81
2021/03/28 09:42:40;;;;;;;2.40;1.80;;;13.20;25.60;;;;;;4945303;29;20642;-83
2021/03/28 09:45:42;;;;;;;7.05;2.17;;;13.30;25.40;;;;;;4952625;29;20225;-80
2021/03/28 09:48:43;;;;;;;9.40;2.22;;;13.30;25.20;;;;;;4947401;29;20230;-81
2021/03/28 09:51:38;;;;;;;2.35;1.40;;;13.40;25.40;;;;;;4943382;29;20695;-82
2021/03/28 09:54:19;;;;;;;4.28;1.75;;;13.50;24.40;;;;;;4942673;29;20206;-82
2021/03/28 09:57:01;;;;;;;3.70;1.33;;;13.50;24.20;;;;;;4943358;29;20258;-81
2021/03/28 09:59:48;;;;;;;3.55;1.80;;;13.40;25.20;;;;;;4942912;29;20264;-82
2021/03/28 10:02:30;;;;;;;4.13;1.75;;;13.60;24.30;;;;;;4941903;29;20187;-83
2021/03/28 10:05:05;;;;;;;2.60;1.58;;;13.70;24.40;;;;;;4941888;29;20523;-80
2021/03/28 10:07:44;;;;;;;2.88;1.50;;;13.70;24.40;;;;;;4942316;29;20245;-84
2021/03/28 10:10:36;;;;;;;2.75;1.50;;;13.70;24.40;;;;;;4943390;29;20210;-83
2021/03/28 10:13:23;;;;;;;7.93;1.77;;;13.70;24.40;;;;;;4941442;29;20519;-79
2021/03/28 10:16:00;;;;;;;5.75;1.75;;;13.60;24.30;;;;;;4944499;29;20358;-83
2021/03/28 10:18:42;;;;;;;4.38;2.20;;;13.70;24.40;;;;;;4942787;29;20237;-82
2021/03/28 10:21:36;;;;;;;3.97;1.60;;;13.90;24.50;;;;;;4947083;29;20233;-83
2021/03/28 10:24:14;;;;;;;8.55;1.73;;;14.10;24.50;;;;;;4946628;29;20243;-82
2021/03/28 10:27:08;;;;;;;4.63;1.70;;;14.20;23.70;;;;;;4943514;29;20187;-82
2021/03/28 10:29:51;;;;;;;5.07;1.50;;;14.10;24.30;;;;;;4945322;29;20187;-82
2021/03/28 10:32:30;;;;;;;5.40;1.77;;;14.20;23.30;;;;;;4945145;29;20232;-84
2021/03/28 10:35:38;;;;;;;4.00;1.80;;;14.20;23.70;;;;;;4948625;29;20218;-83
2021/03/28 10:38:26;;;;;;;4.78;1.52;;;14.30;22.40;;;;;;4956528;29;20255;-83
2021/03/28 10:40:59;;;;;;;3.85;1.55;;;14.10;23.30;;;;;;4953671;29;20215;-83
2021/03/28 10:43:59;;;;;;;2.63;1.55;;;14.10;23.10;;;;;;4953322;29;20207;-80
2021/03/28 10:47:01;;;;;;;4.95;1.35;;;14.20;22.10;;;;;;4942280;29;20210;-82
2021/03/28 10:50:10;;;;;;;4.38;1.65;;;14.20;22.00;;;;;;4892702;29;20240;-82
2021/03/28 10:53:12;;;;;;;5.07;1.35;;;14.20;22.20;;;;;;4951121;29;20270;-82
2021/03/28 10:56:21;;;;;;;3.22;1.50;;;14.30;21.70;;;;;;4929485;29;20210;-81
2021/03/28 10:59:42;;;;;;;2.65;1.20;;;14.50;21.50;;;;;;4958832;28;20229;-81
2021/03/28 11:02:46;;;;;;;4.32;1.85;;;14.50;21.80;;;;;;4953094;28;20206;-83
2021/03/28 11:05:55;;;;;;;3.90;1.88;;;14.50;21.20;;;;;;4945115;29;20234;-83
2021/03/28 11:08:48;;;;;;;6.47;1.65;;;14.60;21.40;;;;;;4925923;29;20253;-81
2021/03/28 11:11:43;;;;;;;8.82;2.40;;;14.80;21.50;;;;;;4946934;29;20202;-82
2021/03/28 11:14:30;;;;;;;5.03;2.08;;;14.70;21.60;;;;;;4919567;29;20210;-83
2021/03/28 11:17:18;;;;;;;3.40;1.50;;;14.80;21.70;;;;;;4944223;29;20241;-82
2021/03/28 11:20:18;;;;;;;2.97;1.60;;;14.70;21.50;;;;;;4945587;29;20239;-81
2021/03/28 11:22:54;;;;;;;3.90;1.42;;;14.50;21.20;;;;;;4949849;29;20241;-80
2021/03/28 11:25:24;;;;;;;5.30;1.67;;;14.50;20.90;;;;;;4953241;29;20294;-81
2021/03/28 11:28:25;;;;;;;6.70;1.92;;;14.60;21.00;;;;;;4957717;28;20225;-80
2021/03/28 11:31:05;;;;;;;3.67;1.73;;;14.60;20.70;;;;;;4947884;29;20585;-78
2021/03/28 11:33:34;;;;;;;5.43;1.52;;;14.60;21.20;;;;;;4955444;29;20226;-80
2021/03/28 11:36:11;;;;;;;5.65;1.80;;;14.70;21.50;;;;;;4956089;29;20202;-80
2021/03/28 11:38:44;;;;;;;3.83;2.17;;;14.90;21.10;;;;;;4955608;28;20226;-81
2021/03/28 11:41:32;;;;;;;3.53;1.60;;;14.90;20.60;;;;;;4958500;28;20466;-82
2021/03/28 11:44:12;;;;;;;2.13;1.43;;;14.90;21.10;;;;;;4958697;28;20267;-79
2021/03/28 11:46:50;;;;;;;7.78;1.92;;;14.90;20.70;;;;;;4959086;28;20417;-77
2021/03/28 11:49:19;;;;;;;4.60;1.77;;;14.80;20.90;;;;;;4958840;28;20198;-80
2021/03/28 11:52:18;;;;;;;5.37;1.70;;;14.90;20.90;;;;;;4949631;29;20218;-80
2021/03/28 11:55:03;;;;;;;2.92;1.13;;;15.00;20.60;;;;;;4945525;29;20473;-83
2021/03/28 11:57:32;;;;;;;1.60;1.38;;;15.00;20.50;;;;;;4956468;28;20297;-79
2021/03/28 12:00:40;;;;;;;4.65;1.83;;;14.90;20.60;;;;;;4957214;29;20202;-81
2021/03/28 12:03:35;;;;;;;3.60;1.50;;;15.00;20.30;;;;;;4912787;28;20194;-80
2021/03/28 12:06:08;;;;;;;5.53;1.90;;;15.10;20.10;;;;;;4943013;29;20224;-80
2021/03/28 12:08:56;;;;;;;2.20;1.33;;;15.20;19.90;;;;;;4947009;29;20242;-84
2021/03/28 12:11:41;;;;;;;5.03;1.38;;;15.30;19.70;;;;;;4945853;29;20258;-81
2021/03/28 12:14:33;;;;;;;4.18;1.67;;;15.30;19.70;;;;;;4951796;29;20206;-82
2021/03/28 12:17:26;;;;;;;2.50;1.30;;;15.40;19.40;;;;;;4938006;29;20706;-82
2021/03/28 12:20:01;;;;;;;3.30;1.70;;;15.60;19.40;;;;;;4947969;29;20232;-84
2021/03/28 12:22:32;;;;;;;2.10;1.27;;;15.90;19.40;;;;;;4948333;29;20214;-84
2021/03/28 12:25:05;;;;;;;7.33;1.97;;;16.00;18.10;;;;;;4961637;28;20478;-85
2021/03/28 12:27:37;;;;;;;5.07;1.70;;;16.00;18.50;;;;;;4959107;28;20478;-80
2021/03/28 12:30:21;;;;;;;2.80;1.42;;;15.90;18.10;;;;;;4950231;29;20217;-81
2021/03/28 12:33:08;;;;;;;4.65;1.70;;;15.80;17.60;;;;;;4947382;29;20214;-81
2021/03/28 12:36:00;;;;;;;3.55;1.58;;;15.70;18.20;;;;;;4945742;29;20222;-85
2021/03/28 12:38:45;;;;;;;3.42;1.50;;;15.70;18.40;;;;;;4946018;29;20234;-80
2021/03/28 12:41:17;;;;;;;5.40;1.80;;;16.00;18.20;;;;;;4946083;29;20195;-81
2021/03/28 12:43:46;;;;;;;4.97;1.50;;;16.00;17.80;;;;;;4946179;29;20219;-82
2021/03/28 12:46:47;;;;;;;2.92;1.63;;;16.00;17.80;;;;;;4945971;29;20213;-80
2021/03/28 12:49:21;;;;;;;2.85;1.45;;;16.00;17.80;;;;;;4945455;29;20218;-80
2021/03/28 12:51:59;;;;;;;4.32;1.60;;;16.00;17.80;;;;;;4947321;29;20191;-81
2021/03/28 12:54:28;;;;;;;5.50;1.67;;;15.90;18.30;;;;;;4948203;29;20206;-80
2021/03/28 12:56:59;;;;;;;5.83;2.50;;;15.90;17.70;;;;;;4949835;29;21032;-81
2021/03/28 12:59:35;;;;;;;4.00;1.60;;;15.70;17.50;;;;;;4948148;29;20487;-81
2021/03/28 13:02:14;;;;;;;4.55;1.85;;;15.80;18.10;;;;;;4951747;29;20497;-81
2021/03/28 13:04:51;;;;;;;5.83;1.70;;;15.80;18.40;;;;;;4947152;29;20537;-80
2021/03/28 13:07:34;;;;;;;2.97;1.60;;;15.90;17.70;;;;;;4944826;29;20877;-82
2021/03/28 13:10:02;;;;;;;5.20;1.97;;;16.00;17.80;;;;;;4952433;29;20409;-84
2021/03/28 13:12:31;;;;;;;4.63;1.60;;;16.10;17.80;;;;;;4953305;29;20726;-80
2021/03/28 13:15:21;;;;;;;3.23;1.37;;;16.30;18.00;;;;;;4958685;28;20474;-85
2021/03/28 13:18:00;;;;;;;6.40;1.63;;;16.40;18.10;;;;;;4959193;28;20470;-88
2021/03/28 13:20:35;;;;;;;2.92;1.45;;;16.00;17.80;;;;;;4961465;28;20194;-87
2021/03/28 13:23:17;;;;;;;3.20;1.20;;;15.90;18.00;;;;;;4960079;28;20206;-86
2021/03/28 13:25:44;;;;;;;6.60;1.87;;;16.00;17.80;;;;;;4961726;28;20223;-85
2021/03/28 13:28:24;;;;;;;5.60;1.73;;;16.10;17.80;;;;;;4948632;29;20496;-83
2021/03/28 13:30:52;;;;;;;3.87;1.80;;;16.20;17.90;;;;;;4947010;29;20458;-81
2021/03/28 13:33:35;;;;;;;5.47;2.20;;;16.30;18.30;;;;;;4948015;29;20466;-84
2021/03/28 13:36:15;;;;;;;7.00;1.77;;;16.30;18.00;;;;;;4957160;28;20473;-85
2021/03/28 13:38:57;;;;;;;5.13;1.83;;;16.30;18.00;;;;;;4958574;29;20470;-81
2021/03/28 13:41:27;;;;;;;3.27;1.43;;;16.00;17.80;;;;;;4944956;29;20498;-82
2021/03/28 13:44:04;;;;;;;3.20;1.40;;;16.00;17.80;;;;;;4948673;29;20489;-80
2021/03/28 13:46:35;;;;;;;6.27;1.57;;;16.10;17.90;;;;;;4949252;29;20454;-85
2021/03/28 13:49:05;;;;;;;5.63;1.80;;;16.20;17.90;;;;;;4959585;28;20468;-86
2021/03/28 13:51:36;;;;;;;3.73;1.73;;;16.20;17.90;;;;;;4959512;28;20279;-80
2021/03/28 13:54:06;;;;;;;7.30;1.50;;;16.20;17.90;;;;;;4954755;29;20457;-82
2021/03/28 13:56:43;;;;;;;5.70;1.90;;;16.30;18.00;;;;;;4951090;29;20508;-81
2021/03/28 13:59:15;;;;;;;6.23;1.80;;;16.40;18.10;;;;;;4955461;28;20424;-81
2021/03/28 14:01:51;;;;;;;3.47;1.53;;;16.40;18.10;;;;;;4959764;28;20433;-79
2021/03/28 14:04:24;;;;;;;4.90;1.90;;;16.40;18.60;;;;;;4957279;28;20522;-81
2021/03/28 14:07:05;;;;;;;5.50;1.67;;;16.40;18.10;;;;;;4960460;28;20482;-79
2021/03/28 14:09:38;;;;;;;3.63;2.03;;;16.40;18.10;;;;;;4951655;29;20478;-81
2021/03/28 14:12:15;;;;;;;3.73;1.30;;;16.30;18.60;;;;;;4951184;29;20462;-82
2021/03/28 14:14:42;;;;;;;4.20;1.70;;;16.30;18.00;;;;;;4950036;29;20453;-84
2021/03/28 14:17:21;;;;;;;3.60;1.40;;;16.50;18.20;;;;;;4952135;29;20468;-83
2021/03/28 14:19:49;;;;;;;3.53;1.73;;;16.60;18.20;;;;;;4951377;29;20428;-81
2021/03/28 14:22:35;;;;;;;3.50;1.67;;;16.50;18.10;;;;;;4972434;23;20928;-89
2021/03/28 14:25:07;;;;;;;3.70;1.73;;;16.60;18.20;;;;;;4940994;29;20470;-87
2021/03/28 14:27:49;;;;;;;3.83;1.90;;;16.70;18.10;;;;;;4939779;29;20430;-88
2021/03/28 14:30:28;;;;;;;6.90;1.80;;;16.80;17.70;;;;;;4937700;29;20483;-88
2021/03/28 14:33:02;;;;;;;5.07;2.13;;;16.70;17.90;;;;;;4939954;29;20495;-87
2021/03/28 14:35:52;;;;;;;4.80;2.03;;;16.80;17.60;;;;;;4940885;29;20451;-88
2021/03/28 14:39:02;;;;;;;2.80;1.80;;;16.80;18.30;;;;;;4938951;29;20483;-87
2021/03/28 14:45:27;;;;;;;4.67;1.80;;;16.90;18.50;;;;;;4939074;29;20494;-86
2021/03/28 14:48:26;;;;;;;3.53;1.60;;;16.50;18.10;;;;;;4936092;29;20478;-88
2021/03/28 14:51:04;;;;;;;8.27;2.30;;;16.50;18.10;;;;;;4906799;29;20438;-88
2021/03/28 14:56:36;;;;;;;8.23;2.33;;;16.70;18.30;;;;;;5165437;23;20576;-91
2021/03/28 14:59:19;;;;;;;2.90;1.70;;;16.90;17.50;;;;;;4959895;28;20530;-92
2021/03/28 15:01:59;;;;;;;4.93;1.80;;;17.00;17.50;;;;;;4959771;28;20452;-90
2021/03/28 15:05:11;;;;;;;6.87;2.30;;;17.00;17.50;;;;;;4953241;29;20478;-91
2021/03/28 15:07:59;;;;;;;4.83;2.07;;;17.00;18.30;;;;;;4947746;29;20428;-89
2021/03/28 15:10:37;;;;;;;7.53;2.20;;;17.00;17.30;;;;;;4949228;29;20480;-89
2021/03/28 15:13:41;;;;;;;5.60;1.77;;;17.10;17.50;;;;;;4947767;29;20517;-89
2021/03/28 15:16:19;;;;;;;4.17;2.27;;;17.30;17.30;;;;;;4948040;29;20476;-89
2021/03/28 15:18:59;;;;;;;4.20;1.53;;;17.30;17.10;;;;;;4949619;29;20504;-90
2021/03/28 15:21:35;;;;;;;3.50;2.00;;;17.40;17.20;;;;;;4949920;29;20486;-90
2021/03/28 15:24:15;;;;;;;4.80;2.00;;;17.40;17.10;;;;;;4952278;29;20581;-91
2021/03/28 15:27:15;;;;;;;4.20;1.57;;;17.30;17.30;;;;;;4958771;29;20483;-89
2021/03/28 15:29:57;;;;;;;3.70;1.60;;;17.40;17.20;;;;;;4954228;29;20435;-90
2021/03/28 15:33:03;;;;;;;2.43;1.60;;;17.40;17.10;;;;;;4959911;28;20486;-93
2021/03/28 15:35:40;;;;;;;3.30;1.53;;;17.40;17.30;;;;;;4922806;28;20458;-90
2021/03/28 15:38:38;;;;;;;3.07;1.63;;;17.40;17.10;;;;;;4959698;28;20443;-89
2021/03/28 15:41:28;;;;;;;4.53;1.70;;;17.30;17.40;;;;;;4959268;28;20473;-90
2021/03/28 15:44:54;;;;;;;5.00;1.90;;;17.30;17.40;;;;;;4959521;28;20452;-92
2021/03/28 15:47:49;;;;;;;3.30;1.70;;;17.20;17.50;;;;;;4938102;28;20443;-91
2021/03/28 15:50:35;;;;;;;5.40;2.00;;;17.20;17.30;;;;;;4959801;28;20458;-91
2021/03/28 15:53:14;;;;;;;4.27;2.20;;;17.10;17.90;;;;;;4959453;28;20470;-91
2021/03/28 15:55:50;;;;;;;2.80;1.57;;;17.00;17.80;;;;;;4959544;28;20485;-91
2021/03/28 15:58:47;;;;;;;3.53;1.73;;;16.90;18.30;;;;;;4959222;28;20462;-90
2021/03/28 16:01:52;;;;;;;3.97;1.50;;;17.00;17.80;;;;;;4959487;28;20460;-89
2021/03/28 16:04:49;;;;;;;3.60;1.50;;;16.80;18.30;;;;;;4959551;28;20457;-90
2021/03/28 16:07:45;;;;;;;4.27;1.73;;;16.90;18.10;;;;;;4959365;28;20527;-91
2021/03/28 16:10:36;;;;;;;4.50;1.60;;;16.80;18.10;;;;;;4959558;28;20454;-90
2021/03/28 16:13:35;;;;;;;4.63;1.50;;;16.80;18.10;;;;;;4952310;28;20456;-87
2021/03/28 16:16:34;;;;;;;4.60;1.90;;;16.70;18.30;;;;;;4959413;28;20390;-90
2021/03/28 16:19:18;;;;;;;4.20;1.73;;;16.70;18.40;;;;;;4951541;28;20448;-87
2021/03/28 16:22:04;;;;;;;3.20;1.60;;;16.70;18.30;;;;;;4946190;29;20482;-88
2021/03/28 16:24:39;;;;;;;2.00;1.60;;;16.60;18.20;;;;;;4945969;29;20478;-87
2021/03/28 16:27:16;;;;;;;2.73;1.67;;;16.50;18.20;;;;;;4947145;29;20453;-87
2021/03/28 16:30:18;;;;;;;5.80;2.03;;;16.30;18.00;;;;;;4945599;29;20452;-89
2021/03/28 16:33:16;;;;;;;4.47;1.70;;;16.20;18.50;;;;;;4948131;29;20456;-88
2021/03/28 16:39:18;;;;;;;4.67;1.77;;;16.20;17.90;;;;;;4933370;29;20469;-89
2021/03/28 16:42:29;;;;;;;3.80;1.70;;;16.00;17.80;;;;;;4948318;29;20482;-88
2021/03/28 16:45:35;;;;;;;2.93;1.67;;;16.00;18.20;;;;;;4948786;29;20490;-86
2021/03/28 16:48:07;;;;;;;7.10;2.13;;;16.00;18.50;;;;;;4887896;29;20461;-88
2021/03/28 16:50:39;;;;;;;4.90;1.50;;;15.90;18.90;;;;;;4871223;29;20228;-88
2021/03/28 16:53:35;;;;;;;7.30;2.30;;;15.80;18.70;;;;;;4888261;29;20447;-88
2021/03/28 16:56:15;;;;;;;3.80;1.87;;;15.70;18.80;;;;;;4889765;29;20445;-88
2021/03/28 16:58:51;;;;;;;6.23;1.63;;;15.70;19.00;;;;;;4891409;29;20464;-87
2021/03/28 17:01:48;;;;;;;5.30;2.00;;;15.70;19.10;;;;;;4890017;29;20468;-88
2021/03/28 17:04:33;;;;;;;4.47;1.90;;;15.60;19.60;;;;;;4855481;29;20481;-89
2021/03/28 17:07:15;;;;;;;8.52;2.70;;;15.60;19.30;;;;;;4856214;29;21023;-88
2021/03/28 17:10:17;;;;;;;6.38;3.17;;;15.50;19.40;;;;;;4865833;29;20202;-90
2021/03/28 17:12:48;;;;;;;7.30;5.30;;;15.50;19.40;;;;;;4829430;29;20238;-89
2021/03/28 17:15:36;;;;;;;2.75;1.27;;;15.40;20.10;;;;;;4867334;29;20423;-91
2021/03/28 17:18:10;;;;;;;5.22;2.13;;;15.30;19.70;;;;;;4866947;29;20292;-92
2021/03/28 17:21:05;;;;;;;4.78;2.95;;;15.30;19.70;;;;;;4866860;29;20202;-90
2021/03/28 17:23:46;;;;;;;4.90;2.03;;;15.30;20.00;;;;;;4873660;29;20217;-89
2021/03/28 17:26:39;;;;;;;7.20;2.30;;;15.20;20.20;;;;;;4885164;29;20201;-89
2021/03/28 17:29:46;;;;;;;3.50;1.83;;;15.10;20.30;;;;;;4882718;29;20193;-88
2021/03/28 17:32:36;;;;;;;2.95;2.00;;;15.10;20.20;;;;;;4881496;29;20530;-89
2021/03/28 17:35:06;;;;;;;2.45;1.48;;;15.00;20.50;;;;;;4882677;29;20201;-91
2021/03/28 17:37:51;;;;;;;4.60;2.00;;;14.90;20.50;;;;;;4900577;28;20199;-91
2021/03/28 17:40:55;;;;;;;4.47;1.83;;;14.90;20.60;;;;;;4961953;28;20186;-92
2021/03/28 17:43:57;;;;;;;7.07;2.47;;;14.80;20.90;;;;;;4962040;28;20238;-91
2021/03/28 17:46:56;;;;;;;5.95;2.58;;;14.60;21.10;;;;;;4961769;28;20221;-92
2021/03/28 17:49:52;;;;;;;11.57;5.85;;;14.50;21.30;;;;;;4950846;28;20198;-92
2021/03/28 17:52:46;;;;;;;7.53;2.92;;;14.50;21.40;;;;;;4961577;28;20221;-91
2021/03/28 17:55:44;;;;;;;4.75;2.30;;;14.40;21.40;;;;;;4959008;28;20232;-90
2021/03/28 17:58:16;;;;;;;4.93;2.50;;;14.30;21.90;;;;;;4960974;29;20206;-91
2021/03/28 18:00:51;;;;;;;4.55;2.08;;;14.20;22.10;;;;;;4961159;28;20201;-91
2021/03/28 18:03:21;;;;;;;4.55;2.20;;;14.10;22.10;;;;;;4961551;28;20191;-92
2021/03/28 18:05:55;;;;;;;4.50;2.10;;;14.00;22.30;;;;;;4960957;28;20642;-91
2021/03/28 18:08:26;;;;;;;8.68;3.10;;;13.90;22.30;;;;;;4960050;28;20201;-92
2021/03/28 18:10:55;;;;;;;3.97;2.17;;;13.90;22.70;;;;;;4960541;28;20186;-94
2021/03/28 18:13:27;;;;;;;2.67;2.45;;;13.80;22.40;;;;;;4959852;29;20262;-91
2021/03/28 18:15:59;;;;;;;3.90;2.00;;;13.80;22.70;;;;;;4960203;28;20214;-91
2021/03/28 18:18:32;;;;;;;4.80;2.40;;;13.80;23.10;;;;;;4959997;28;20183;-89
2021/03/28 18:21:31;;;;;;;6.50;2.60;;;13.80;23.10;;;;;;4959434;29;20211;-89
2021/03/28 18:23:59;;;;;;;3.28;1.90;;;13.70;23.00;;;;;;4960165;28;20206;-92
2021/03/28 18:26:45;;;;;;;4.00;2.05;;;13.70;23.50;;;;;;4960290;28;20213;-91
2021/03/28 18:29:32;;;;;;;4.68;2.33;;;13.50;23.50;;;;;;4958112;28;20222;-90
2021/03/28 18:32:02;;;;;;;5.80;2.58;;;13.70;23.80;;;;;;4959390;28;20250;-91
2021/03/28 18:34:37;;;;;;;4.38;2.55;;;13.50;24.40;;;;;;4958970;28;20210;-91
2021/03/28 18:37:26;;;;;;;6.80;3.47;;;13.50;24.20;;;;;;4956357;29;20249;-90
2021/03/28 18:58:35;;;;;;;6.72;2.47;;;12.90;24.40;;;;;;4965667;29;20213;-82
2021/03/28 19:01:24;;;;;;;7.47;2.40;;;12.90;24.50;;;;;;4967565;29;20300;-83
2021/03/28 19:04:30;;;;;;;5.18;1.80;;;12.80;24.90;;;;;;4962496;29;20217;-83
2021/03/28 19:07:30;;;;;;;3.90;1.90;;;12.60;25.50;;;;;;4980279;28;20241;-83
2021/03/28 19:10:16;;;;;;;4.05;2.10;;;12.60;25.40;;;;;;4967136;29;20354;-81
2021/03/28 19:12:45;;;;;;;5.50;2.28;;;12.50;25.60;;;;;;4965538;29;20214;-80
2021/03/28 19:15:42;;;;;;;3.20;1.95;;;12.50;25.60;;;;;;4966500;29;20209;-82
2021/03/28 19:18:34;;;;;;;4.93;2.53;;;12.50;25.90;;;;;;4950684;29;20578;-81
2021/03/28 19:21:26;;;;;;;5.85;2.20;;;12.40;26.00;;;;;;4968464;28;20210;-84
2021/03/28 19:23:57;;;;;;;4.35;1.88;;;12.40;26.30;;;;;;4966658;29;20225;-81
2021/03/28 19:26:45;;;;;;;4.82;2.30;;;12.40;26.90;;;;;;4967205;29;20226;-79
2021/03/28 19:29:39;;;;;;;5.00;2.65;;;12.50;26.20;;;;;;4961988;29;20217;-80
2021/03/28 19:32:20;;;;;;;7.10;2.35;;;12.40;26.40;;;;;;4966415;29;20213;-80
2021/03/28 19:35:10;;;;;;;5.07;2.47;;;12.40;26.80;;;;;;4966150;29;20609;-81
2021/03/28 19:37:40;;;;;;;2.33;2.10;;;12.30;26.70;;;;;;4967340;29;20322;-79
2021/03/28 19:40:13;;;;;;;3.80;2.55;;;12.30;27.00;;;;;;4968854;29;20300;-81
2021/03/28 19:42:39;;;;;;;4.72;2.80;;;12.20;27.00;;;;;;4973436;29;20220;-80
2021/03/28 19:45:29;;;;;;;4.05;2.30;;;12.20;27.30;;;;;;4966996;28;20253;-79
2021/03/28 19:53:38;;;;;;;4.38;3.75;;;12.10;27.40;;;;;;5859136;23;20246;-81
2021/03/28 19:56:06;;;;;;;6.97;4.50;;;12.10;27.60;;;;;;4957098;28;20178;-80
2021/03/28 19:58:34;;;;;;;5.60;3.95;;;12.00;27.70;;;;;;4954176;28;20213;-82
2021/03/28 20:01:04;;;;;;;5.65;3.72;;;12.00;27.80;;;;;;4958257;29;20210;-87
2021/03/28 20:03:43;;;;;;;9.65;4.22;;;11.90;28.00;;;;;;4955804;28;20214;-80
